Time;durP1;ratioP1;P1;durP2;ratioP2;P2;SDS_P1;SDS_P2;PMS_P1;PMS_P2;Temp;Humidity;BMP_temperature;BMP_pressure;BME280_temperature;BME280_humidity;BME280_pressure;Samples;Min_cycle;Max_cycle;Signal;HPM_P1;HPM_P2
2022/12/25 00:01:31;;;;;;;5.10;4.00;;;8.40;99.90;;;;;;5058459;28;20225;-85
2022/12/25 00:03:58;;;;;;;5.93;4.65;;;8.40;99.90;;;;;;5064865;28;20213;-85
2022/12/25 00:06:25;;;;;;;4.80;3.92;;;8.40;99.90;;;;;;5053557;28;20210;-85
2022/12/25 00:08:52;;;;;;;5.82;4.32;;;8.30;99.90;;;;;;5059347;28;20258;-85
2022/12/25 00:11:21;;;;;;;8.50;4.95;;;8.20;99.90;;;;;;5062689;28;20281;-85
2022/12/25 00:13:48;;;;;;;5.53;4.40;;;8.20;99.90;;;;;;5062330;28;20248;-85
2022/12/25 00:16:19;;;;;;;6.53;4.65;;;8.10;99.90;;;;;;5066194;28;20198;-85
2022/12/25 00:18:46;;;;;;;7.70;4.28;;;7.90;99.90;;;;;;5066368;28;20208;-85
2022/12/25 00:21:13;;;;;;;7.68;4.30;;;7.80;99.90;;;;;;5064203;28;20209;-85
2022/12/25 00:23:41;;;;;;;6.20;3.30;;;7.70;99.90;;;;;;5059142;28;20232;-85
2022/12/25 00:26:10;;;;;;;3.72;3.08;;;7.70;99.90;;;;;;5062726;28;20202;-85
2022/12/25 00:28:39;;;;;;;4.47;3.30;;;7.70;99.90;;;;;;5063008;28;20198;-85
2022/12/25 00:31:06;;;;;;;4.03;3.05;;;7.70;99.90;;;;;;5065230;28;20237;-85
2022/12/25 00:33:35;;;;;;;3.40;2.53;;;7.60;99.90;;;;;;5065668;28;20620;-85
2022/12/25 00:36:02;;;;;;;3.45;2.58;;;7.60;99.90;;;;;;5062949;28;20206;-85
2022/12/25 00:38:30;;;;;;;3.47;2.78;;;7.50;99.90;;;;;;5067738;28;20207;-85
2022/12/25 00:40:56;;;;;;;2.53;2.20;;;7.50;99.90;;;;;;5064230;28;20221;-85
2022/12/25 00:43:24;;;;;;;2.80;2.40;;;7.50;99.90;;;;;;5060883;28;20205;-86
2022/12/25 00:45:56;;;;;;;3.83;2.70;;;7.50;99.90;;;;;;5060906;28;20212;-85
2022/12/25 00:48:24;;;;;;;2.33;2.13;;;7.40;99.90;;;;;;5064924;28;20205;-85
2022/12/25 00:50:54;;;;;;;3.13;2.65;;;7.40;99.90;;;;;;5060014;28;20205;-85
2022/12/25 00:53:20;;;;;;;6.80;4.35;;;7.40;99.90;;;;;;5060888;28;20208;-85
2022/12/25 00:55:51;;;;;;;3.83;2.50;;;7.40;99.90;;;;;;5064856;28;20204;-85
2022/12/25 00:58:18;;;;;;;3.58;2.60;;;7.40;99.90;;;;;;5061138;28;20209;-85
2022/12/25 01:00:46;;;;;;;2.78;2.00;;;7.40;99.90;;;;;;5060433;28;20217;-85
2022/12/25 01:03:15;;;;;;;2.95;2.30;;;7.40;99.90;;;;;;5058356;28;20657;-85
2022/12/25 01:05:42;;;;;;;2.30;2.00;;;7.50;99.90;;;;;;5061237;28;20209;-86
2022/12/25 01:08:08;;;;;;;2.47;1.90;;;7.40;99.90;;;;;;5068872;28;20197;-85
2022/12/25 01:10:34;;;;;;;2.92;2.30;;;7.40;99.90;;;;;;5057706;28;20396;-86
2022/12/25 01:13:01;;;;;;;3.35;2.42;;;7.30;99.90;;;;;;5072210;28;20561;-85
2022/12/25 01:15:28;;;;;;;2.22;2.03;;;7.20;99.90;;;;;;5059359;28;20186;-85
2022/12/25 01:17:55;;;;;;;3.00;2.05;;;7.10;99.90;;;;;;5066869;28;20197;-85
2022/12/25 01:20:23;;;;;;;2.88;1.83;;;7.10;99.90;;;;;;5068768;28;20222;-85
2022/12/25 01:22:50;;;;;;;2.90;2.00;;;7.10;99.90;;;;;;5061009;28;20680;-85
2022/12/25 01:25:20;;;;;;;1.98;1.73;;;7.10;99.90;;;;;;5064743;28;20297;-85
2022/12/25 01:27:47;;;;;;;2.03;1.70;;;7.20;99.90;;;;;;5060755;28;20205;-85
2022/12/25 01:30:14;;;;;;;1.88;1.70;;;7.20;99.90;;;;;;5061252;28;20201;-85
2022/12/25 01:32:41;;;;;;;2.25;1.67;;;7.30;99.90;;;;;;5061114;28;20550;-85
2022/12/25 01:35:08;;;;;;;3.88;1.77;;;7.30;99.90;;;;;;5068426;28;20212;-85
2022/12/25 01:37:36;;;;;;;1.45;1.35;;;7.30;99.90;;;;;;5061052;28;20201;-85
2022/12/25 01:40:03;;;;;;;2.33;1.25;;;7.40;99.90;;;;;;5072290;28;20199;-85
2022/12/25 01:42:30;;;;;;;2.53;1.45;;;7.50;99.90;;;;;;5056906;28;20221;-86
2022/12/25 01:45:33;;;;;;;2.28;1.25;;;7.50;99.90;;;;;;5065564;28;20205;-86
2022/12/25 01:48:04;;;;;;;1.50;1.40;;;7.50;99.90;;;;;;5062476;28;20198;-86
2022/12/25 01:50:32;;;;;;;2.03;1.50;;;7.60;99.90;;;;;;5065943;28;20201;-86
2022/12/25 01:53:01;;;;;;;1.40;1.30;;;7.60;99.90;;;;;;5060507;28;20193;-85
2022/12/25 01:55:29;;;;;;;1.35;1.25;;;7.60;99.90;;;;;;5059730;28;20200;-85
2022/12/25 01:57:56;;;;;;;1.30;1.20;;;7.60;99.90;;;;;;5058652;28;20206;-86
2022/12/25 02:00:23;;;;;;;2.45;1.35;;;7.60;99.90;;;;;;5057373;28;20214;-85
2022/12/25 02:02:50;;;;;;;2.50;1.45;;;7.70;99.90;;;;;;5063273;28;20243;-85
2022/12/25 02:05:22;;;;;;;1.30;1.20;;;7.70;99.90;;;;;;5061814;28;20209;-85
2022/12/25 02:07:50;;;;;;;1.35;1.25;;;7.80;99.90;;;;;;5064327;28;20193;-85
2022/12/25 02:10:18;;;;;;;3.33;1.35;;;7.80;99.90;;;;;;5062175;28;20225;-85
2022/12/25 02:12:47;;;;;;;1.33;1.23;;;7.90;99.90;;;;;;5065505;28;20224;-85
2022/12/25 02:15:17;;;;;;;1.30;1.20;;;7.80;99.90;;;;;;5061380;28;20198;-86
2022/12/25 02:17:50;;;;;;;1.40;1.30;;;7.80;99.90;;;;;;5060931;28;20202;-86
2022/12/25 02:21:03;;;;;;;2.20;1.30;;;7.90;99.90;;;;;;5063842;28;20209;-85
2022/12/25 02:23:47;;;;;;;1.73;1.40;;;7.70;99.90;;;;;;5065933;28;20584;-85
2022/12/25 02:26:41;;;;;;;1.60;1.50;;;7.60;99.90;;;;;;5053076;28;20286;-85
2022/12/25 02:29:17;;;;;;;4.28;1.35;;;7.60;99.90;;;;;;5057974;28;20654;-85
2022/12/25 02:31:49;;;;;;;1.70;1.33;;;7.60;99.90;;;;;;5054520;28;20207;-85
2022/12/25 02:34:21;;;;;;;1.63;1.20;;;7.60;99.90;;;;;;5066321;28;20201;-85
2022/12/25 02:36:53;;;;;;;3.00;1.50;;;7.50;99.90;;;;;;5058059;28;20206;-85
2022/12/25 02:42:12;;;;;;;1.33;1.23;;;7.70;99.90;;;;;;5059906;28;20224;-85
2022/12/25 03:07:14;;;;;;;1.02;0.93;;;7.70;99.90;;;;;;5065272;28;20683;-85
2022/12/25 03:12:41;;;;;;;1.55;1.20;;;7.70;99.90;;;;;;5060297;28;20232;-85
2022/12/25 03:17:58;;;;;;;1.13;1.02;;;7.70;99.90;;;;;;5062346;28;20212;-85
2022/12/25 03:28:40;;;;;;;2.25;1.02;;;7.70;99.90;;;;;;5056357;28;20669;-86
2022/12/25 03:31:15;;;;;;;1.35;1.20;;;7.80;99.90;;;;;;5058790;28;20207;-85
2022/12/25 03:37:09;;;;;;;1.20;1.10;;;7.90;99.90;;;;;;5022704;28;20572;-85
2022/12/25 04:37:54;;;;;;;2.78;1.67;;;7.90;99.90;;;;;;5058059;28;20296;-86
2022/12/25 04:40:22;;;;;;;1.80;1.52;;;8.00;99.90;;;;;;5062559;28;20636;-85
2022/12/25 04:42:50;;;;;;;2.20;1.67;;;8.00;99.90;;;;;;5059398;28;20296;-85
2022/12/25 04:45:16;;;;;;;1.88;1.58;;;7.90;99.90;;;;;;5061360;28;20574;-85
2022/12/25 04:47:43;;;;;;;2.03;1.60;;;7.80;99.90;;;;;;5060067;28;20200;-85
2022/12/25 04:50:10;;;;;;;1.85;1.67;;;7.90;99.90;;;;;;5053333;28;20200;-85
2022/12/25 04:52:39;;;;;;;2.13;1.80;;;8.00;99.90;;;;;;5061980;28;20565;-85
2022/12/25 04:55:07;;;;;;;2.50;1.58;;;7.90;99.90;;;;;;5063102;28;20235;-85
2022/12/25 04:57:35;;;;;;;1.50;1.40;;;7.80;99.90;;;;;;5060059;28;20208;-85
2022/12/25 05:00:02;;;;;;;2.45;1.77;;;7.80;99.90;;;;;;5063750;28;20201;-85
2022/12/25 05:02:29;;;;;;;2.35;1.83;;;7.80;99.90;;;;;;5061080;28;20229;-85
2022/12/25 05:04:56;;;;;;;2.13;1.60;;;7.80;99.90;;;;;;5063364;28;20197;-85
2022/12/25 05:07:22;;;;;;;1.83;1.60;;;7.90;99.90;;;;;;5065896;28;20206;-85
2022/12/25 05:09:49;;;;;;;3.92;1.92;;;7.90;99.90;;;;;;5059131;28;20229;-85
2022/12/25 05:12:16;;;;;;;2.22;1.77;;;7.80;99.90;;;;;;5062227;28;20212;-85
2022/12/25 05:14:44;;;;;;;2.65;1.70;;;7.80;99.90;;;;;;5065995;28;21024;-86
2022/12/25 05:17:11;;;;;;;1.60;1.50;;;7.90;99.90;;;;;;5062017;28;20198;-85
2022/12/25 05:19:38;;;;;;;2.97;1.80;;;8.00;99.90;;;;;;5059576;28;20205;-85
2022/12/25 05:22:05;;;;;;;2.60;1.98;;;7.90;99.90;;;;;;5057597;28;20229;-85
2022/12/25 05:24:32;;;;;;;3.20;1.80;;;7.80;99.90;;;;;;5060120;28;20201;-85
2022/12/25 05:26:59;;;;;;;2.45;1.77;;;7.70;99.90;;;;;;5062684;28;20205;-85
2022/12/25 05:29:26;;;;;;;4.40;1.98;;;7.80;99.90;;;;;;5061376;28;20194;-85
2022/12/25 05:32:01;;;;;;;1.80;1.70;;;7.80;99.90;;;;;;5069116;28;20201;-85
2022/12/25 05:34:28;;;;;;;3.15;1.77;;;7.90;99.90;;;;;;5060729;28;20204;-86
2022/12/25 05:36:56;;;;;;;2.05;1.75;;;7.90;99.90;;;;;;5064203;28;20685;-85
2022/12/25 05:39:23;;;;;;;2.13;1.60;;;7.90;99.90;;;;;;5068375;28;20247;-86
2022/12/25 05:41:50;;;;;;;2.53;1.60;;;7.90;99.90;;;;;;5063893;28;20221;-86
2022/12/25 05:44:16;;;;;;;3.15;1.83;;;7.80;99.90;;;;;;5064316;28;20199;-86
2022/12/25 05:46:43;;;;;;;2.70;1.77;;;7.70;99.90;;;;;;5068526;28;20200;-85
2022/12/25 05:49:12;;;;;;;4.18;1.63;;;7.70;99.90;;;;;;5061028;28;20194;-85
2022/12/25 05:51:38;;;;;;;1.95;1.80;;;7.80;99.90;;;;;;5055911;28;20205;-86
2022/12/25 05:54:05;;;;;;;1.85;1.70;;;7.70;99.90;;;;;;5057989;28;20661;-85
2022/12/25 05:56:32;;;;;;;2.25;1.60;;;7.70;99.90;;;;;;5062554;28;20217;-86
2022/12/25 05:58:59;;;;;;;2.05;1.70;;;7.70;99.90;;;;;;5064070;28;20214;-85
2022/12/25 06:01:28;;;;;;;2.15;1.80;;;7.70;99.90;;;;;;5064277;28;20203;-85
2022/12/25 06:03:55;;;;;;;2.42;1.75;;;7.70;99.90;;;;;;5057304;28;20198;-85
2022/12/25 06:06:24;;;;;;;2.20;1.90;;;7.60;99.90;;;;;;5061677;28;20213;-85
2022/12/25 06:08:53;;;;;;;2.50;1.90;;;7.60;99.90;;;;;;5062508;28;20210;-85
2022/12/25 06:11:20;;;;;;;1.92;1.83;;;7.50;99.90;;;;;;5064232;28;20211;-85
2022/12/25 06:13:50;;;;;;;2.00;1.73;;;7.50;99.90;;;;;;5060441;28;20193;-85
2022/12/25 06:16:17;;;;;;;3.53;2.10;;;7.40;99.90;;;;;;5062797;28;20338;-86
2022/12/25 06:18:50;;;;;;;2.00;1.80;;;7.50;99.90;;;;;;5063033;28;20202;-85
2022/12/25 06:21:17;;;;;;;1.80;1.70;;;7.40;99.90;;;;;;5060325;28;20202;-85
2022/12/25 06:23:46;;;;;;;2.78;1.80;;;7.40;99.90;;;;;;5060894;28;20233;-84
2022/12/25 06:26:15;;;;;;;1.80;1.67;;;7.30;99.90;;;;;;5060200;28;20194;-86
2022/12/25 06:28:42;;;;;;;1.85;1.75;;;7.30;99.90;;;;;;5064447;28;20212;-85
2022/12/25 06:31:10;;;;;;;3.03;1.70;;;7.30;99.90;;;;;;5067451;28;20201;-85
2022/12/25 06:33:38;;;;;;;2.00;1.75;;;7.30;99.90;;;;;;5066358;28;20201;-85
2022/12/25 06:36:07;;;;;;;3.60;1.92;;;7.30;99.90;;;;;;5059119;28;20201;-85
2022/12/25 06:38:34;;;;;;;1.52;1.42;;;7.40;99.90;;;;;;5058953;28;20992;-85
2022/12/25 06:41:05;;;;;;;2.10;1.60;;;7.40;99.90;;;;;;5062570;28;20637;-85
2022/12/25 06:43:32;;;;;;;3.58;1.70;;;7.50;99.90;;;;;;5063731;28;20225;-85
2022/12/25 06:46:03;;;;;;;2.00;1.60;;;7.50;99.90;;;;;;5066262;28;20216;-85
2022/12/25 06:48:29;;;;;;;3.00;1.85;;;7.60;99.90;;;;;;5061184;28;20198;-85
2022/12/25 06:50:56;;;;;;;2.72;1.90;;;7.50;99.90;;;;;;5062343;28;20201;-85
2022/12/25 06:53:23;;;;;;;2.00;1.67;;;7.50;99.90;;;;;;5058385;28;20197;-85
2022/12/25 06:55:50;;;;;;;1.88;1.60;;;7.40;99.90;;;;;;5058251;28;20208;-85
2022/12/25 06:58:18;;;;;;;3.97;2.30;;;7.40;99.90;;;;;;5067082;28;20219;-85
2022/12/25 07:00:45;;;;;;;3.80;3.00;;;7.50;99.90;;;;;;5063189;28;20197;-85
2022/12/25 07:03:19;;;;;;;4.80;3.53;;;7.40;99.90;;;;;;5063448;28;20221;-85
2022/12/25 07:05:46;;;;;;;4.68;3.13;;;7.40;99.90;;;;;;5061105;28;20619;-85
2022/12/25 07:08:13;;;;;;;5.07;2.85;;;7.50;99.90;;;;;;5060595;28;20193;-85
2022/12/25 07:10:39;;;;;;;7.10;2.20;;;7.60;99.90;;;;;;5061852;28;20605;-85
2022/12/25 07:13:06;;;;;;;2.95;2.38;;;7.60;99.90;;;;;;5064698;28;20208;-86
2022/12/25 07:15:34;;;;;;;3.42;2.60;;;7.60;99.90;;;;;;5062321;28;20204;-85
2022/12/25 07:18:01;;;;;;;4.38;3.30;;;7.60;99.90;;;;;;5065643;28;20221;-85
2022/12/25 07:20:28;;;;;;;4.60;2.35;;;7.60;99.90;;;;;;5061436;28;20209;-85
2022/12/25 07:22:56;;;;;;;3.53;2.40;;;7.70;99.90;;;;;;5060797;28;20244;-85
2022/12/25 07:25:22;;;;;;;2.78;2.22;;;7.70;99.90;;;;;;5060826;28;20201;-85
2022/12/25 07:27:49;;;;;;;2.38;2.10;;;7.70;99.90;;;;;;5062556;28;20206;-85
2022/12/25 07:30:16;;;;;;;3.70;2.40;;;7.70;99.90;;;;;;5059069;28;20587;-85
2022/12/25 07:32:44;;;;;;;4.13;2.20;;;7.80;99.90;;;;;;5064176;28;20576;-85
2022/12/25 07:35:11;;;;;;;3.35;2.45;;;7.90;99.90;;;;;;5054580;28;20198;-85
2022/12/25 07:37:38;;;;;;;3.03;2.42;;;7.90;99.90;;;;;;5059531;28;20201;-85
2022/12/25 07:40:06;;;;;;;2.53;2.00;;;7.90;99.90;;;;;;5055931;28;20208;-85
2022/12/25 07:42:32;;;;;;;8.75;1.67;;;7.90;99.90;;;;;;5059963;28;20228;-85
2022/12/25 07:45:00;;;;;;;4.03;2.03;;;7.90;99.90;;;;;;5066456;28;20569;-85
2022/12/25 07:47:26;;;;;;;3.08;1.98;;;8.00;99.90;;;;;;5059246;28;20198;-85
2022/12/25 07:49:54;;;;;;;1.60;1.50;;;8.10;99.90;;;;;;5057100;28;20205;-85
2022/12/25 07:52:21;;;;;;;2.72;1.55;;;8.20;99.90;;;;;;5065251;28;20204;-85
2022/12/25 07:54:48;;;;;;;3.63;1.67;;;8.30;99.90;;;;;;5058578;28;20197;-86
2022/12/25 07:57:15;;;;;;;1.80;1.70;;;8.40;99.90;;;;;;5059910;28;20293;-85
2022/12/25 07:59:42;;;;;;;2.65;1.95;;;8.40;99.90;;;;;;5062306;28;20650;-85
2022/12/25 08:02:10;;;;;;;3.90;2.00;;;8.50;99.90;;;;;;5060024;28;20232;-85
2022/12/25 08:04:37;;;;;;;2.17;1.70;;;8.50;99.90;;;;;;5060159;28;20674;-85
2022/12/25 08:07:05;;;;;;;3.38;1.70;;;8.60;99.90;;;;;;5060729;28;20205;-85
2022/12/25 08:09:32;;;;;;;2.15;1.60;;;8.80;99.90;;;;;;5061905;28;20240;-85
2022/12/25 08:11:58;;;;;;;3.53;2.03;;;8.80;99.90;;;;;;5060588;28;20558;-86
2022/12/25 08:14:25;;;;;;;2.03;1.83;;;8.80;99.90;;;;;;5064411;28;20197;-85
2022/12/25 08:16:52;;;;;;;2.03;1.50;;;8.80;99.90;;;;;;5062008;28;20194;-85
2022/12/25 08:19:19;;;;;;;3.25;2.17;;;8.80;99.90;;;;;;5054004;28;20202;-85
2022/12/25 08:21:46;;;;;;;3.20;1.83;;;9.00;99.90;;;;;;5058257;28;20209;-85
2022/12/25 08:24:15;;;;;;;2.38;1.60;;;9.00;99.90;;;;;;5060718;28;20700;-85
2022/12/25 08:26:42;;;;;;;1.90;1.70;;;9.10;99.90;;;;;;5062523;28;20198;-85
2022/12/25 08:29:09;;;;;;;2.17;1.80;;;9.20;99.90;;;;;;5060428;28;20562;-85
2022/12/25 08:31:36;;;;;;;1.83;1.48;;;9.50;99.90;;;;;;5063042;28;20661;-86
2022/12/25 08:34:03;;;;;;;2.75;1.20;;;9.70;99.90;;;;;;5064153;28;20202;-85
2022/12/25 08:36:30;;;;;;;1.55;1.30;;;9.70;99.10;;;;;;5064789;28;20197;-86
2022/12/25 08:38:57;;;;;;;3.40;1.17;;;9.60;99.20;;;;;;5068448;28;20201;-86
2022/12/25 08:41:26;;;;;;;1.63;1.00;;;9.60;99.20;;;;;;5064906;28;20198;-86
2022/12/25 08:43:53;;;;;;;1.15;1.05;;;9.60;99.00;;;;;;5058511;28;20217;-85
2022/12/25 08:46:20;;;;;;;1.67;1.10;;;9.60;98.90;;;;;;5065556;28;20390;-85
2022/12/25 08:48:48;;;;;;;2.03;1.15;;;9.60;98.90;;;;;;5063270;28;20206;-85
2022/12/25 08:51:17;;;;;;;1.70;1.30;;;9.50;99.10;;;;;;5071734;28;20189;-85
2022/12/25 08:53:46;;;;;;;1.15;1.05;;;9.50;99.30;;;;;;5064231;28;20275;-85
2022/12/25 08:56:13;;;;;;;2.67;1.10;;;9.80;99.10;;;;;;5072281;28;20205;-86
2022/12/25 08:58:42;;;;;;;1.85;0.95;;;10.20;98.40;;;;;;5070113;28;20228;-85
2022/12/25 09:01:09;;;;;;;1.90;1.10;;;10.60;96.80;;;;;;5060906;28;20204;-86
2022/12/25 09:03:36;;;;;;;1.10;1.00;;;10.80;95.90;;;;;;5062113;28;20236;-87
2022/12/25 09:06:05;;;;;;;1.50;1.00;;;10.90;95.90;;;;;;5060214;28;20205;-85
2022/12/25 09:08:33;;;;;;;1.67;1.20;;;11.00;94.90;;;;;;5063199;28;20665;-85
2022/12/25 09:11:02;;;;;;;1.35;1.05;;;11.30;94.00;;;;;;5069584;28;20236;-86
2022/12/25 09:13:29;;;;;;;2.28;1.20;;;11.50;94.00;;;;;;5063585;28;20216;-86
2022/12/25 09:15:57;;;;;;;2.33;1.20;;;11.80;93.50;;;;;;5063254;28;20204;-86
2022/12/25 09:18:24;;;;;;;1.90;1.35;;;12.50;91.50;;;;;;5067871;28;20198;-85
2022/12/25 09:20:58;;;;;;;4.88;1.58;;;13.10;87.20;;;;;;5064732;28;20213;-86
2022/12/25 09:23:25;;;;;;;2.95;1.10;;;13.80;85.70;;;;;;5063523;28;20695;-86
2022/12/25 09:25:51;;;;;;;2.10;1.30;;;14.40;78.60;;;;;;5058792;28;20195;-86
2022/12/25 09:28:18;;;;;;;1.38;1.00;;;14.70;72.30;;;;;;5062758;28;20555;-86
2022/12/25 09:30:45;;;;;;;3.20;1.10;;;15.20;63.80;;;;;;5063417;28;20541;-84
2022/12/25 09:33:14;;;;;;;1.30;1.17;;;15.50;60.00;;;;;;5060254;28;20206;-84
2022/12/25 09:35:41;;;;;;;1.58;1.35;;;15.70;56.70;;;;;;5058146;28;20202;-84
2022/12/25 09:38:07;;;;;;;1.40;1.25;;;15.90;53.20;;;;;;5065678;28;20202;-84
2022/12/25 09:40:34;;;;;;;1.20;1.10;;;16.30;50.80;;;;;;5062108;28;20569;-84
2022/12/25 09:43:03;;;;;;;2.30;1.10;;;16.10;45.70;;;;;;5060879;28;20221;-84
2022/12/25 09:45:35;;;;;;;2.42;1.20;;;15.70;49.00;;;;;;5057283;28;20230;-84
2022/12/25 09:48:01;;;;;;;2.35;1.20;;;15.00;53.80;;;;;;5068430;28;20208;-84
2022/12/25 09:50:38;;;;;;;2.97;1.20;;;15.00;57.40;;;;;;5064421;28;20653;-84
2022/12/25 09:53:09;;;;;;;1.75;1.13;;;14.60;59.20;;;;;;5062463;28;20192;-84
2022/12/25 09:55:43;;;;;;;3.55;1.25;;;14.30;65.00;;;;;;5060538;28;20210;-87
2022/12/25 09:58:12;;;;;;;2.05;1.30;;;13.90;74.70;;;;;;5063793;28;20193;-86
2022/12/25 10:00:43;;;;;;;1.50;1.10;;;13.50;79.70;;;;;;5063282;28;20206;-86
2022/12/25 10:03:17;;;;;;;1.65;1.40;;;13.00;86.10;;;;;;5062629;28;20209;-86
2022/12/25 10:06:07;;;;;;;3.00;1.20;;;12.90;88.80;;;;;;5066980;28;20293;-86
2022/12/25 10:08:53;;;;;;;2.33;1.30;;;12.90;90.00;;;;;;5060386;28;20648;-86
2022/12/25 10:11:34;;;;;;;2.40;1.33;;;13.00;90.20;;;;;;5062955;28;20203;-86
2022/12/25 10:14:12;;;;;;;1.20;1.10;;;13.00;89.20;;;;;;5058244;28;20379;-86
2022/12/25 10:16:48;;;;;;;1.48;1.20;;;13.00;88.90;;;;;;5062113;28;20209;-86
2022/12/25 10:19:24;;;;;;;4.78;1.50;;;12.70;90.30;;;;;;5059907;28;20650;-86
2022/12/25 10:21:57;;;;;;;1.00;1.00;;;12.60;90.90;;;;;;5063736;28;20226;-87
2022/12/25 10:24:33;;;;;;;1.75;1.45;;;12.60;90.90;;;;;;5064515;28;20224;-86
2022/12/25 10:27:02;;;;;;;1.30;1.20;;;12.70;90.90;;;;;;5059804;28;20205;-86
2022/12/25 10:29:32;;;;;;;1.80;1.02;;;12.90;91.00;;;;;;5058865;28;20206;-86
2022/12/25 10:31:59;;;;;;;1.88;1.25;;;13.00;91.00;;;;;;5066191;28;20197;-86
2022/12/25 10:34:29;;;;;;;1.02;1.00;;;13.10;90.30;;;;;;5061344;28;20560;-86
2022/12/25 10:37:00;;;;;;;2.80;1.00;;;13.20;90.10;;;;;;5063352;28;20202;-86
2022/12/25 10:39:27;;;;;;;1.30;1.20;;;13.50;87.90;;;;;;5057756;28;20616;-86
2022/12/25 10:42:09;;;;;;;2.60;1.30;;;13.80;86.00;;;;;;5062572;28;20206;-86
2022/12/25 10:44:36;;;;;;;3.08;1.30;;;13.90;83.90;;;;;;5063517;28;20582;-86
2022/12/25 10:47:04;;;;;;;1.30;1.20;;;13.70;83.90;;;;;;5058496;28;20204;-86
2022/12/25 10:49:34;;;;;;;1.38;1.17;;;13.80;84.40;;;;;;5064839;28;20201;-86
2022/12/25 10:52:02;;;;;;;2.58;1.70;;;14.00;81.70;;;;;;5065874;28;20205;-86
2022/12/25 10:54:32;;;;;;;1.63;1.40;;;14.10;80.70;;;;;;5061345;28;20606;-87
2022/12/25 10:57:01;;;;;;;1.30;1.20;;;14.20;79.60;;;;;;5063433;28;20201;-86
2022/12/25 10:59:30;;;;;;;3.92;1.50;;;14.30;79.50;;;;;;5063470;28;20567;-85
2022/12/25 11:02:04;;;;;;;1.52;1.10;;;14.40;78.60;;;;;;5061729;28;20198;-84
2022/12/25 11:04:35;;;;;;;1.83;1.48;;;14.50;76.90;;;;;;5062056;28;20602;-87
2022/12/25 11:07:07;;;;;;;1.30;1.20;;;14.00;78.60;;;;;;5057590;28;20208;-86
2022/12/25 11:09:34;;;;;;;1.45;1.30;;;13.90;80.90;;;;;;5060633;28;20587;-86
2022/12/25 11:12:02;;;;;;;1.58;1.38;;;14.10;81.60;;;;;;5058544;28;20229;-86
2022/12/25 11:14:29;;;;;;;2.05;1.35;;;14.00;81.00;;;;;;5066269;28;20201;-87
2022/12/25 11:17:07;;;;;;;1.92;1.70;;;14.00;83.30;;;;;;5062392;28;20193;-86
2022/12/25 11:19:34;;;;;;;1.95;1.50;;;13.80;82.80;;;;;;5062507;28;20986;-86
2022/12/25 11:22:03;;;;;;;1.15;1.08;;;13.70;83.30;;;;;;5063294;28;20216;-86
2022/12/25 11:24:33;;;;;;;2.22;1.38;;;13.60;84.80;;;;;;5061797;28;20224;-86
2022/12/25 11:27:02;;;;;;;2.50;1.30;;;13.60;85.00;;;;;;5062264;28;20197;-86
2022/12/25 11:29:36;;;;;;;1.50;1.40;;;13.50;85.50;;;;;;5058996;28;20213;-86
2022/12/25 11:32:11;;;;;;;1.88;1.50;;;13.50;86.30;;;;;;5063738;28;20653;-86
2022/12/25 11:34:45;;;;;;;1.52;1.42;;;13.50;87.10;;;;;;5058838;28;20293;-86
2022/12/25 11:37:18;;;;;;;2.00;1.60;;;13.70;86.70;;;;;;5056858;28;20228;-87
2022/12/25 11:39:45;;;;;;;3.63;2.00;;;13.70;86.30;;;;;;5058477;28;20201;-86
2022/12/25 11:42:18;;;;;;;1.48;1.38;;;13.80;85.50;;;;;;5061712;28;20209;-86
2022/12/25 11:44:51;;;;;;;1.45;1.35;;;13.70;85.60;;;;;;5061501;28;20225;-86
2022/12/25 11:47:24;;;;;;;4.10;1.30;;;13.80;84.70;;;;;;5061775;28;20197;-86
2022/12/25 11:49:58;;;;;;;1.65;1.25;;;13.70;84.80;;;;;;5053876;28;20626;-86
2022/12/25 11:52:31;;;;;;;2.45;1.50;;;13.80;85.30;;;;;;5057238;28;20653;-86
2022/12/25 11:55:04;;;;;;;1.40;1.30;;;13.80;84.70;;;;;;5065168;28;20193;-86
2022/12/25 11:57:35;;;;;;;2.20;1.52;;;13.80;84.40;;;;;;5059863;28;20205;-86
2022/12/25 12:00:05;;;;;;;1.42;1.27;;;13.70;84.20;;;;;;5059040;28;20206;-86
2022/12/25 12:02:38;;;;;;;1.60;1.20;;;13.90;83.60;;;;;;5058188;28;20241;-86
2022/12/25 12:05:14;;;;;;;1.25;1.08;;;13.80;84.00;;;;;;5065758;28;20236;-86
2022/12/25 12:07:52;;;;;;;1.73;1.25;;;13.90;82.40;;;;;;5062698;28;20209;-86
2022/12/25 12:10:24;;;;;;;1.40;1.30;;;13.90;82.90;;;;;;5069008;28;20224;-86
2022/12/25 12:12:58;;;;;;;1.45;1.20;;;13.90;81.90;;;;;;5066230;28;20770;-86
2022/12/25 12:15:28;;;;;;;3.10;1.50;;;13.90;81.00;;;;;;5065862;28;20662;-86
2022/12/25 12:18:06;;;;;;;1.63;1.20;;;14.00;81.00;;;;;;5063521;28;20198;-86
2022/12/25 12:20:35;;;;;;;1.20;1.10;;;13.90;81.10;;;;;;5062029;28;20194;-86
2022/12/25 12:23:10;;;;;;;2.05;1.15;;;13.90;81.00;;;;;;5066013;28;20226;-85
2022/12/25 12:25:40;;;;;;;1.45;1.30;;;13.90;81.20;;;;;;5060722;28;20209;-86
2022/12/25 12:28:13;;;;;;;1.40;1.30;;;13.80;81.00;;;;;;5061716;28;20209;-86
2022/12/25 12:30:40;;;;;;;1.60;1.30;;;13.80;81.60;;;;;;5059383;28;20653;-86
2022/12/25 12:33:18;;;;;;;2.30;1.27;;;13.80;80.70;;;;;;5066083;28;20216;-85
2022/12/25 12:35:45;;;;;;;1.92;1.23;;;13.80;81.20;;;;;;5059340;28;20216;-86
2022/12/25 12:38:17;;;;;;;2.35;1.23;;;13.80;82.50;;;;;;5061942;28;20209;-86
2022/12/25 12:40:52;;;;;;;1.40;1.30;;;13.70;82.30;;;;;;5064290;28;20204;-86
2022/12/25 12:43:30;;;;;;;1.23;1.13;;;13.70;81.70;;;;;;5065760;28;20201;-86
2022/12/25 12:46:01;;;;;;;1.73;1.27;;;13.60;82.50;;;;;;5066705;28;20201;-86
2022/12/25 12:48:30;;;;;;;1.73;1.63;;;13.60;86.40;;;;;;5075255;28;20242;-86
2022/12/25 12:51:04;;;;;;;1.95;1.35;;;13.60;86.40;;;;;;5083142;28;20256;-86
2022/12/25 12:53:34;;;;;;;2.10;1.30;;;13.50;88.30;;;;;;5068160;28;20197;-86
2022/12/25 12:56:12;;;;;;;4.95;1.33;;;13.40;89.50;;;;;;5070262;28;20202;-86
2022/12/25 12:58:44;;;;;;;1.45;1.35;;;13.40;90.00;;;;;;5068017;28;20201;-86
2022/12/25 13:01:19;;;;;;;1.45;1.30;;;13.40;90.20;;;;;;5061073;28;20201;-86
2022/12/25 13:04:20;;;;;;;1.55;1.45;;;13.40;90.20;;;;;;5065719;28;20213;-86
2022/12/25 13:06:53;;;;;;;2.22;1.75;;;13.50;90.00;;;;;;5065088;28;20649;-86
2022/12/25 13:09:31;;;;;;;1.58;1.48;;;13.60;89.70;;;;;;5061899;28;20230;-86
2022/12/25 13:11:58;;;;;;;1.60;1.45;;;13.50;89.80;;;;;;5063725;28;20210;-86
2022/12/25 13:14:25;;;;;;;1.63;1.52;;;13.50;89.70;;;;;;5069745;28;20205;-86
2022/12/25 13:16:54;;;;;;;2.08;1.80;;;13.50;90.00;;;;;;5059529;28;20281;-86
2022/12/25 13:19:23;;;;;;;2.03;1.70;;;13.50;89.90;;;;;;5063697;28;20194;-86
2022/12/25 13:21:54;;;;;;;2.00;1.65;;;13.50;90.00;;;;;;5064406;28;20198;-86
2022/12/25 13:24:25;;;;;;;1.63;1.52;;;13.40;90.00;;;;;;5066507;28;20465;-86
2022/12/25 13:26:52;;;;;;;2.13;1.70;;;13.50;89.30;;;;;;5064405;28;20208;-86
2022/12/25 13:29:28;;;;;;;2.00;1.63;;;13.40;89.90;;;;;;5064820;28;20201;-86
2022/12/25 13:31:55;;;;;;;3.20;1.80;;;13.30;90.40;;;;;;5060966;28;20427;-86
2022/12/25 13:34:30;;;;;;;3.47;1.90;;;13.20;90.40;;;;;;5060365;28;20201;-86
2022/12/25 13:36:58;;;;;;;1.80;1.48;;;13.30;90.40;;;;;;5064867;28;20193;-86
2022/12/25 13:39:26;;;;;;;1.65;1.52;;;13.20;90.40;;;;;;5066803;28;20276;-87
2022/12/25 13:42:05;;;;;;;1.52;1.42;;;13.20;90.30;;;;;;5064410;28;20206;-86
2022/12/25 13:44:42;;;;;;;1.80;1.70;;;13.20;90.00;;;;;;5060142;28;20221;-86
2022/12/25 13:47:17;;;;;;;2.17;1.85;;;13.20;89.70;;;;;;5064329;28;20216;-86
2022/12/25 13:49:45;;;;;;;1.90;1.60;;;13.10;89.70;;;;;;5069457;28;20206;-86
2022/12/25 13:52:14;;;;;;;1.80;1.70;;;13.00;90.20;;;;;;5059930;28;20198;-86
2022/12/25 13:54:58;;;;;;;2.00;1.73;;;13.00;89.70;;;;;;5060034;28;20288;-86
2022/12/25 13:57:30;;;;;;;2.47;1.60;;;13.00;89.60;;;;;;5063534;28;20202;-86
2022/12/25 13:59:58;;;;;;;1.67;1.58;;;13.00;90.00;;;;;;5065174;28;20697;-86
2022/12/25 14:02:30;;;;;;;1.80;1.67;;;12.90;89.90;;;;;;5059601;28;20208;-86
2022/12/25 14:04:57;;;;;;;1.45;1.25;;;12.90;90.00;;;;;;5062440;28;20582;-86
2022/12/25 14:07:24;;;;;;;1.90;1.63;;;12.90;89.40;;;;;;5061036;28;20216;-86
2022/12/25 14:09:57;;;;;;;1.98;1.50;;;13.00;88.90;;;;;;5063169;28;20232;-86
2022/12/25 14:12:25;;;;;;;2.72;1.70;;;13.00;88.70;;;;;;5061532;28;20677;-86
2022/12/25 14:14:53;;;;;;;1.73;1.45;;;12.90;89.30;;;;;;5059248;28;20217;-86
2022/12/25 14:17:21;;;;;;;2.00;1.50;;;12.90;90.00;;;;;;5063302;28;20541;-86
2022/12/25 14:19:57;;;;;;;1.80;1.70;;;12.80;90.30;;;;;;5059331;28;20205;-85
2022/12/25 14:22:25;;;;;;;1.80;1.70;;;12.80;90.50;;;;;;5063279;28;20228;-86
2022/12/25 14:24:54;;;;;;;2.22;1.70;;;12.80;90.90;;;;;;5059048;28;20590;-86
2022/12/25 14:27:31;;;;;;;1.95;1.58;;;12.80;90.90;;;;;;5066392;28;20194;-86
2022/12/25 14:29:59;;;;;;;1.88;1.70;;;12.80;90.70;;;;;;5064056;28;20203;-86
2022/12/25 14:32:30;;;;;;;1.73;1.60;;;12.70;90.90;;;;;;5055513;28;20198;-86
2022/12/25 14:35:00;;;;;;;1.70;1.55;;;12.70;91.20;;;;;;5059910;28;20198;-86
2022/12/25 14:37:30;;;;;;;1.90;1.60;;;12.50;90.90;;;;;;5063064;28;20232;-86
2022/12/25 14:40:00;;;;;;;1.70;1.60;;;12.40;91.20;;;;;;5067643;28;20192;-86
2022/12/25 14:42:29;;;;;;;2.08;1.88;;;12.20;91.60;;;;;;5064111;28;20205;-86
2022/12/25 14:45:00;;;;;;;2.33;1.90;;;12.20;91.80;;;;;;5071319;28;20224;-85
2022/12/25 14:47:27;;;;;;;2.13;1.70;;;12.10;92.10;;;;;;5054557;28;20208;-86